Time;durP1;ratioP1;P1;durP2;ratioP2;P2;SDS_P1;SDS_P2;PMS_P1;PMS_P2;Temp;Humidity;BMP_temperature;BMP_pressure;BME280_temperature;BME280_humidity;BME280_pressure;Samples;Min_cycle;Max_cycle;Signal;HPM_P1;HPM_P2
2022/06/26 00:00:44;;;;;;;0.80;0.80;;;;;;;;;;4161728;28;20058;-76
2022/06/26 00:02:46;;;;;;;1.90;1.05;;;;;;;;;;4161316;28;20141;-76
2022/06/26 00:04:49;;;;;;;1.15;1.00;;;;;;;;;;4160239;28;20061;-76
2022/06/26 00:06:51;;;;;;;1.13;0.90;;;;;;;;;;4161315;28;20096;-76
2022/06/26 00:08:53;;;;;;;1.00;0.80;;;;;;;;;;4161873;28;20056;-76
2022/06/26 00:10:55;;;;;;;1.40;1.20;;;;;;;;;;4162040;28;20858;-76
2022/06/26 00:12:57;;;;;;;1.55;1.10;;;;;;;;;;4159132;28;20792;-76
2022/06/26 00:15:00;;;;;;;0.70;0.70;;;;;;;;;;4162254;28;20058;-79
2022/06/26 00:17:02;;;;;;;0.80;0.80;;;;;;;;;;4162892;28;20656;-75
2022/06/26 00:19:04;;;;;;;1.98;0.85;;;;;;;;;;4161064;28;20050;-76
2022/06/26 00:21:06;;;;;;;0.82;0.82;;;;;;;;;;4163050;28;20049;-76
2022/06/26 00:23:08;;;;;;;2.50;0.80;;;;;;;;;;4162505;28;20058;-77
2022/06/26 00:25:10;;;;;;;2.05;0.68;;;;;;;;;;4163129;28;20169;-77
2022/06/26 00:27:13;;;;;;;1.70;0.95;;;;;;;;;;4165293;28;20054;-76
2022/06/26 00:29:15;;;;;;;2.25;1.25;;;;;;;;;;4164164;28;20120;-77
2022/06/26 00:31:17;;;;;;;0.70;0.70;;;;;;;;;;4165081;28;20173;-77
2022/06/26 00:33:19;;;;;;;1.00;1.00;;;;;;;;;;4162836;28;20057;-77
2022/06/26 00:35:21;;;;;;;0.70;0.70;;;;;;;;;;4156163;28;20859;-76
2022/06/26 00:37:22;;;;;;;0.70;0.70;;;;;;;;;;4164779;28;20077;-76
2022/06/26 00:39:24;;;;;;;0.68;0.68;;;;;;;;;;4163229;28;20058;-76
2022/06/26 00:41:26;;;;;;;0.85;0.63;;;;;;;;;;4164902;28;20054;-76
2022/06/26 00:43:29;;;;;;;3.53;0.63;;;;;;;;;;4163657;28;20045;-76
2022/06/26 00:45:31;;;;;;;1.23;0.60;;;;;;;;;;4162648;28;20149;-77
2022/06/26 00:47:33;;;;;;;3.53;0.73;;;;;;;;;;4159993;28;20065;-77
2022/06/26 00:49:36;;;;;;;0.90;0.60;;;;;;;;;;4159806;28;20475;-78
2022/06/26 00:51:40;;;;;;;0.50;0.50;;;;;;;;;;4156781;28;20053;-77
2022/06/26 00:53:42;;;;;;;1.65;0.98;;;;;;;;;;4159615;28;20062;-77
2022/06/26 00:55:44;;;;;;;1.15;0.70;;;;;;;;;;4162046;28;20056;-77
2022/06/26 00:57:47;;;;;;;0.65;0.65;;;;;;;;;;4160458;28;20104;-77
2022/06/26 00:59:49;;;;;;;1.33;0.60;;;;;;;;;;4160075;28;20065;-76
2022/06/26 01:01:51;;;;;;;0.40;0.40;;;;;;;;;;4162057;28;20060;-76
2022/06/26 01:03:53;;;;;;;0.45;0.43;;;;;;;;;;4168074;28;20900;-78
2022/06/26 01:05:55;;;;;;;0.50;0.50;;;;;;;;;;4161292;28;20068;-77
2022/06/26 01:07:58;;;;;;;0.47;0.47;;;;;;;;;;4162412;28;20050;-77
2022/06/26 01:10:01;;;;;;;0.43;0.40;;;;;;;;;;4160429;28;20152;-77
2022/06/26 01:12:03;;;;;;;0.70;0.50;;;;;;;;;;4176309;28;20057;-77
2022/06/26 01:14:12;;;;;;;0.60;0.40;;;;;;;;;;4163306;28;20065;-77
2022/06/26 01:16:15;;;;;;;0.40;0.40;;;;;;;;;;4161681;28;20148;-78
2022/06/26 01:18:18;;;;;;;0.40;0.40;;;;;;;;;;4161602;28;20062;-77
2022/06/26 01:20:20;;;;;;;2.85;0.43;;;;;;;;;;4162745;28;20054;-77
2022/06/26 01:22:27;;;;;;;0.40;0.40;;;;;;;;;;4161451;28;20637;-77
2022/06/26 01:24:29;;;;;;;0.35;0.35;;;;;;;;;;4162728;28;20057;-77
2022/06/26 01:26:33;;;;;;;1.27;0.50;;;;;;;;;;4162397;28;20069;-77
2022/06/26 01:28:35;;;;;;;1.15;0.43;;;;;;;;;;4165346;28;20062;-77
2022/06/26 01:30:37;;;;;;;0.77;0.40;;;;;;;;;;4168540;28;20089;-77
2022/06/26 01:32:39;;;;;;;0.55;0.55;;;;;;;;;;4158502;28;20054;-76
2022/06/26 01:34:42;;;;;;;0.68;0.60;;;;;;;;;;4159109;28;20073;-76
2022/06/26 01:36:44;;;;;;;0.30;0.30;;;;;;;;;;4161203;28;20054;-76
2022/06/26 01:38:46;;;;;;;0.40;0.40;;;;;;;;;;4160804;28;20066;-75
2022/06/26 01:40:49;;;;;;;0.45;0.30;;;;;;;;;;4162898;28;20869;-77
2022/06/26 01:42:51;;;;;;;0.32;0.32;;;;;;;;;;4159308;28;20055;-76
2022/06/26 01:44:53;;;;;;;0.43;0.43;;;;;;;;;;4156140;28;20093;-77
2022/06/26 01:46:56;;;;;;;0.45;0.32;;;;;;;;;;4162375;28;20062;-77
2022/06/26 01:48:58;;;;;;;0.40;0.40;;;;;;;;;;4155096;28;20161;-75
2022/06/26 01:51:01;;;;;;;0.32;0.32;;;;;;;;;;4151136;28;20177;-75
2022/06/26 01:53:04;;;;;;;0.40;0.40;;;;;;;;;;4153565;28;20843;-77
2022/06/26 01:55:06;;;;;;;1.48;0.40;;;;;;;;;;4153875;28;20057;-77
2022/06/26 01:57:08;;;;;;;0.70;0.57;;;;;;;;;;4162712;28;20861;-75
2022/06/26 01:59:10;;;;;;;3.03;0.35;;;;;;;;;;4153503;28;20058;-75
2022/06/26 02:01:14;;;;;;;0.30;0.30;;;;;;;;;;4156655;28;21232;-76
2022/06/26 02:03:17;;;;;;;0.40;0.40;;;;;;;;;;4156765;28;20062;-76
2022/06/26 02:05:19;;;;;;;0.63;0.47;;;;;;;;;;4157368;28;20058;-77
2022/06/26 02:07:21;;;;;;;0.57;0.30;;;;;;;;;;4155945;28;20205;-77
2022/06/26 02:14:05;;;;;;;0.85;0.38;;;;;;;;;;4159573;28;20057;-77
2022/06/26 02:16:09;;;;;;;1.65;0.50;;;;;;;;;;4158467;28;20870;-77
2022/06/26 02:18:12;;;;;;;0.40;0.38;;;;;;;;;;4159593;28;20097;-77
2022/06/26 02:20:14;;;;;;;0.47;0.30;;;;;;;;;;4160543;28;20058;-78
2022/06/26 02:22:16;;;;;;;0.50;0.40;;;;;;;;;;4159132;28;21119;-77
2022/06/26 02:24:18;;;;;;;0.40;0.28;;;;;;;;;;4157195;28;20186;-77
2022/06/26 02:26:21;;;;;;;0.30;0.30;;;;;;;;;;4163341;28;21075;-78
2022/06/26 02:28:23;;;;;;;0.30;0.30;;;;;;;;;;4161536;28;20108;-77
2022/06/26 02:30:25;;;;;;;0.85;0.30;;;;;;;;;;4161415;28;20064;-75
2022/06/26 02:32:27;;;;;;;0.43;0.40;;;;;;;;;;4158068;28;20094;-76
2022/06/26 02:34:29;;;;;;;0.40;0.40;;;;;;;;;;4159421;28;20106;-77
2022/06/26 02:36:32;;;;;;;0.73;0.40;;;;;;;;;;4158701;28;20056;-77
2022/06/26 02:38:34;;;;;;;0.30;0.20;;;;;;;;;;4160337;28;20909;-77
2022/06/26 02:40:37;;;;;;;0.50;0.40;;;;;;;;;;4158861;28;20093;-77
2022/06/26 02:42:39;;;;;;;1.75;0.60;;;;;;;;;;4160003;28;20057;-78
2022/06/26 02:44:41;;;;;;;0.90;0.40;;;;;;;;;;4159342;28;20054;-80
2022/06/26 02:46:43;;;;;;;0.60;0.40;;;;;;;;;;4162404;28;20050;-79
2022/06/26 02:48:45;;;;;;;0.30;0.30;;;;;;;;;;4163928;28;20062;-77
2022/06/26 02:50:47;;;;;;;0.40;0.40;;;;;;;;;;4162501;28;20068;-75
2022/06/26 02:52:49;;;;;;;0.30;0.30;;;;;;;;;;4158307;28;20090;-77
2022/06/26 02:54:51;;;;;;;0.40;0.40;;;;;;;;;;4162833;28;20133;-76
2022/06/26 02:56:53;;;;;;;0.40;0.40;;;;;;;;;;4157031;28;20058;-77
2022/06/26 02:58:56;;;;;;;0.28;0.28;;;;;;;;;;4157232;28;20097;-77
2022/06/26 03:00:58;;;;;;;1.42;0.40;;;;;;;;;;4155557;28;20066;-77
2022/06/26 03:03:03;;;;;;;0.82;0.82;;;;;;;;;;4158632;28;20066;-77
2022/06/26 03:05:06;;;;;;;0.30;0.30;;;;;;;;;;4153475;28;20097;-76
2022/06/26 03:07:08;;;;;;;0.30;0.30;;;;;;;;;;4153678;28;20069;-77
2022/06/26 03:09:10;;;;;;;0.30;0.30;;;;;;;;;;4154865;28;20104;-77
2022/06/26 03:11:13;;;;;;;0.43;0.43;;;;;;;;;;4156225;28;20058;-77
2022/06/26 03:13:15;;;;;;;0.30;0.30;;;;;;;;;;4157764;28;20058;-78
2022/06/26 03:15:17;;;;;;;0.20;0.20;;;;;;;;;;4153482;28;20068;-77
2022/06/26 03:17:20;;;;;;;0.60;0.30;;;;;;;;;;4153332;28;20043;-77
2022/06/26 03:19:23;;;;;;;0.22;0.22;;;;;;;;;;4153558;28;20180;-77
2022/06/26 03:21:25;;;;;;;0.47;0.35;;;;;;;;;;4158388;28;20371;-77
2022/06/26 03:25:48;;;;;;;0.43;0.32;;;;;;;;;;4157815;28;20173;-76
2022/06/26 03:27:51;;;;;;;0.88;0.30;;;;;;;;;;4162101;28;20069;-77
2022/06/26 03:29:53;;;;;;;0.43;0.43;;;;;;;;;;4157490;28;20069;-77
2022/06/26 03:31:55;;;;;;;0.98;0.60;;;;;;;;;;4159561;28;20061;-77
2022/06/26 03:33:57;;;;;;;0.28;0.28;;;;;;;;;;4158549;28;20093;-77
2022/06/26 03:35:59;;;;;;;0.25;0.25;;;;;;;;;;4157206;28;20058;-77
2022/06/26 03:38:01;;;;;;;0.35;0.35;;;;;;;;;;4152818;28;20054;-78
2022/06/26 03:40:04;;;;;;;0.30;0.22;;;;;;;;;;4158426;28;20996;-78
2022/06/26 03:42:06;;;;;;;0.52;0.38;;;;;;;;;;4159434;28;20875;-78
2022/06/26 03:44:08;;;;;;;0.38;0.32;;;;;;;;;;4160566;28;20058;-77
2022/06/26 03:46:10;;;;;;;0.30;0.30;;;;;;;;;;4155840;28;20066;-77
2022/06/26 03:48:12;;;;;;;0.43;0.30;;;;;;;;;;4160684;28;20105;-77
2022/06/26 03:50:14;;;;;;;0.32;0.30;;;;;;;;;;4158677;28;20885;-77
2022/06/26 03:52:24;;;;;;;0.40;0.40;;;;;;;;;;4158240;28;20105;-76
2022/06/26 03:54:27;;;;;;;0.30;0.30;;;;;;;;;;4158480;28;20070;-77
2022/06/26 03:56:29;;;;;;;0.22;0.22;;;;;;;;;;4158817;28;20046;-76
2022/06/26 03:58:31;;;;;;;0.40;0.30;;;;;;;;;;4159373;28;20623;-76
2022/06/26 04:00:33;;;;;;;0.40;0.40;;;;;;;;;;4159917;28;20179;-77
2022/06/26 04:02:37;;;;;;;0.63;0.40;;;;;;;;;;4161017;28;20747;-77
2022/06/26 04:04:39;;;;;;;0.20;0.20;;;;;;;;;;4163794;28;20055;-76
2022/06/26 04:06:41;;;;;;;0.85;0.30;;;;;;;;;;4158206;28;20793;-76
2022/06/26 04:08:43;;;;;;;0.20;0.20;;;;;;;;;;4158441;28;20778;-77
2022/06/26 04:10:46;;;;;;;1.15;0.30;;;;;;;;;;4158096;28;20066;-76
2022/06/26 04:12:48;;;;;;;0.30;0.20;;;;;;;;;;4156636;28;20066;-77
2022/06/26 04:14:50;;;;;;;0.50;0.30;;;;;;;;;;4156987;28;20602;-77
2022/06/26 04:16:52;;;;;;;0.20;0.20;;;;;;;;;;4156726;28;20058;-78
2022/06/26 04:18:54;;;;;;;0.40;0.40;;;;;;;;;;4154771;28;20846;-77
2022/06/26 04:20:56;;;;;;;0.40;0.40;;;;;;;;;;4156358;28;20062;-77
2022/06/26 04:23:00;;;;;;;0.28;0.28;;;;;;;;;;4168672;28;20152;-77
2022/06/26 04:25:03;;;;;;;0.30;0.30;;;;;;;;;;4157735;28;20059;-78
2022/06/26 04:27:05;;;;;;;0.22;0.22;;;;;;;;;;4155107;28;20925;-78
2022/06/26 04:29:07;;;;;;;0.20;0.13;;;;;;;;;;4153957;28;20771;-77
2022/06/26 04:31:09;;;;;;;0.82;0.30;;;;;;;;;;4156167;28;21018;-78
2022/06/26 04:33:12;;;;;;;0.35;0.30;;;;;;;;;;4152441;28;20053;-77
2022/06/26 04:35:14;;;;;;;0.40;0.20;;;;;;;;;;4158074;28;20057;-77
2022/06/26 04:37:16;;;;;;;0.30;0.25;;;;;;;;;;4156340;28;20062;-76
2022/06/26 04:39:18;;;;;;;0.10;0.10;;;;;;;;;;4159622;28;20801;-76
2022/06/26 04:41:34;;;;;;;0.80;0.30;;;;;;;;;;4157781;28;20874;-77
2022/06/26 04:43:36;;;;;;;0.70;0.40;;;;;;;;;;4164198;28;20069;-76
2022/06/26 04:45:38;;;;;;;0.30;0.30;;;;;;;;;;4165721;28;20053;-77
2022/06/26 04:47:41;;;;;;;0.90;0.28;;;;;;;;;;4157190;28;20062;-77
2022/06/26 04:49:43;;;;;;;0.60;0.30;;;;;;;;;;4158070;28;20937;-77
2022/06/26 04:51:45;;;;;;;0.32;0.30;;;;;;;;;;4159804;28;20058;-77
2022/06/26 04:53:47;;;;;;;0.20;0.20;;;;;;;;;;4165798;28;20058;-77
2022/06/26 04:55:49;;;;;;;0.45;0.40;;;;;;;;;;4161040;28;20058;-77
2022/06/26 04:57:51;;;;;;;0.30;0.30;;;;;;;;;;4160612;28;20788;-77
2022/06/26 04:59:53;;;;;;;0.50;0.50;;;;;;;;;;4159365;28;20881;-77
2022/06/26 05:01:55;;;;;;;0.30;0.30;;;;;;;;;;4163392;28;20064;-76
2022/06/26 05:03:58;;;;;;;0.40;0.40;;;;;;;;;;4159454;28;20853;-77
2022/06/26 05:06:00;;;;;;;0.40;0.30;;;;;;;;;;4158026;28;20094;-77
2022/06/26 05:08:02;;;;;;;0.30;0.30;;;;;;;;;;4161106;28;20768;-76
2022/06/26 05:10:04;;;;;;;0.32;0.32;;;;;;;;;;4158211;28;20060;-76
2022/06/26 05:12:07;;;;;;;1.05;0.40;;;;;;;;;;4159256;28;21124;-76
2022/06/26 05:14:09;;;;;;;0.45;0.35;;;;;;;;;;4162744;28;20948;-76
2022/06/26 05:16:11;;;;;;;0.20;0.20;;;;;;;;;;4163471;28;20045;-76
2022/06/26 05:18:13;;;;;;;0.30;0.30;;;;;;;;;;4159724;28;20064;-76
2022/06/26 05:20:16;;;;;;;0.43;0.35;;;;;;;;;;4163723;28;20064;-76
2022/06/26 05:22:19;;;;;;;0.52;0.52;;;;;;;;;;4162307;28;20086;-76
2022/06/26 05:24:21;;;;;;;0.40;0.40;;;;;;;;;;4164014;28;20057;-76
2022/06/26 05:26:24;;;;;;;0.40;0.30;;;;;;;;;;4164060;28;20180;-76
2022/06/26 05:28:26;;;;;;;0.85;0.50;;;;;;;;;;4164020;28;20160;-76
2022/06/26 05:30:28;;;;;;;0.68;0.30;;;;;;;;;;4159696;28;20057;-76
2022/06/26 05:32:30;;;;;;;0.30;0.30;;;;;;;;;;4158835;28;20085;-76
2022/06/26 05:34:32;;;;;;;0.40;0.40;;;;;;;;;;4160800;28;20172;-76
2022/06/26 05:36:34;;;;;;;0.40;0.40;;;;;;;;;;4161228;28;20058;-76
2022/06/26 05:38:37;;;;;;;0.30;0.30;;;;;;;;;;4163639;28;20912;-76
2022/06/26 05:40:39;;;;;;;1.05;0.38;;;;;;;;;;4161861;28;20061;-76
2022/06/26 05:42:42;;;;;;;1.67;0.40;;;;;;;;;;4160994;28;20080;-76
2022/06/26 05:44:44;;;;;;;0.55;0.40;;;;;;;;;;4157567;28;20062;-76
2022/06/26 05:46:46;;;;;;;1.48;0.63;;;;;;;;;;4165182;28;20785;-76
2022/06/26 05:48:48;;;;;;;0.50;0.40;;;;;;;;;;4161352;28;20156;-76
2022/06/26 05:50:51;;;;;;;0.30;0.30;;;;;;;;;;4160205;28;20093;-76
2022/06/26 05:52:53;;;;;;;2.13;0.32;;;;;;;;;;4164146;28;20054;-77
2022/06/26 05:54:55;;;;;;;0.38;0.32;;;;;;;;;;4158717;28;20606;-77
2022/06/26 05:56:58;;;;;;;0.40;0.40;;;;;;;;;;4154571;28;20058;-76
2022/06/26 05:59:00;;;;;;;2.63;0.40;;;;;;;;;;4154534;28;20058;-76
2022/06/26 06:01:02;;;;;;;0.60;0.40;;;;;;;;;;4162570;28;20759;-76
2022/06/26 06:03:04;;;;;;;1.15;0.50;;;;;;;;;;4154618;28;20282;-76
2022/06/26 06:05:07;;;;;;;1.33;0.30;;;;;;;;;;4158951;28;20153;-76
2022/06/26 06:07:09;;;;;;;0.40;0.40;;;;;;;;;;4156589;28;20058;-76
2022/06/26 06:09:11;;;;;;;0.40;0.40;;;;;;;;;;4160347;28;20058;-76
2022/06/26 06:11:13;;;;;;;0.32;0.22;;;;;;;;;;4163436;28;20797;-76
2022/06/26 06:13:16;;;;;;;0.20;0.20;;;;;;;;;;4155378;28;20098;-76
2022/06/26 06:15:18;;;;;;;0.50;0.20;;;;;;;;;;4158521;28;20158;-76
2022/06/26 06:17:36;;;;;;;0.40;0.30;;;;;;;;;;4157522;28;20805;-76
2022/06/26 06:19:39;;;;;;;0.40;0.40;;;;;;;;;;4156941;28;20050;-76
2022/06/26 06:21:41;;;;;;;0.28;0.28;;;;;;;;;;4156107;28;20065;-76
2022/06/26 06:23:43;;;;;;;0.38;0.38;;;;;;;;;;4153563;28;20058;-76
2022/06/26 06:25:45;;;;;;;0.80;0.30;;;;;;;;;;4158929;28;20726;-76
2022/06/26 06:27:47;;;;;;;1.45;0.40;;;;;;;;;;4159355;28;20937;-76
2022/06/26 06:29:49;;;;;;;0.45;0.30;;;;;;;;;;4158784;28;20057;-76
2022/06/26 06:31:51;;;;;;;0.38;0.38;;;;;;;;;;4158636;28;20707;-76
2022/06/26 06:33:54;;;;;;;1.15;1.15;;;;;;;;;;4159144;28;20108;-76
2022/06/26 06:35:56;;;;;;;0.40;0.30;;;;;;;;;;4154692;28;20054;-76
2022/06/26 06:37:58;;;;;;;0.63;0.60;;;;;;;;;;4155460;28;20065;-76
2022/06/26 06:40:00;;;;;;;0.40;0.40;;;;;;;;;;4160835;28;20097;-76
2022/06/26 06:42:02;;;;;;;0.40;0.40;;;;;;;;;;4164722;28;20064;-77
2022/06/26 06:44:05;;;;;;;0.73;0.25;;;;;;;;;;4159037;28;20832;-77
2022/06/26 06:46:07;;;;;;;0.25;0.20;;;;;;;;;;4159103;28;20318;-77
2022/06/26 06:48:09;;;;;;;0.80;0.30;;;;;;;;;;4155889;28;20057;-77
2022/06/26 06:50:11;;;;;;;0.30;0.30;;;;;;;;;;4158100;28;20053;-75
2022/06/26 06:52:13;;;;;;;0.40;0.30;;;;;;;;;;4160306;28;20096;-77
2022/06/26 06:54:15;;;;;;;0.32;0.30;;;;;;;;;;4159588;28;20117;-77
2022/06/26 06:56:17;;;;;;;0.30;0.30;;;;;;;;;;4159607;28;20066;-76
2022/06/26 06:58:19;;;;;;;2.38;0.30;;;;;;;;;;4164125;28;20836;-77
2022/06/26 07:00:22;;;;;;;2.13;0.32;;;;;;;;;;4162928;28;20160;-76
2022/06/26 07:02:24;;;;;;;0.40;0.30;;;;;;;;;;4156560;28;20821;-76
2022/06/26 07:04:26;;;;;;;0.28;0.28;;;;;;;;;;4164738;28;20062;-76
2022/06/26 07:06:32;;;;;;;2.30;0.30;;;;;;;;;;4157051;28;20069;-76
2022/06/26 07:08:34;;;;;;;0.40;0.30;;;;;;;;;;4158124;28;20046;-76
2022/06/26 07:10:37;;;;;;;0.30;0.30;;;;;;;;;;4177706;28;20156;-76
2022/06/26 07:12:39;;;;;;;0.40;0.40;;;;;;;;;;4159525;28;20062;-76
2022/06/26 07:14:41;;;;;;;0.55;0.50;;;;;;;;;;4162910;28;20062;-76
2022/06/26 07:16:43;;;;;;;0.40;0.20;;;;;;;;;;4161562;28;20162;-76
2022/06/26 07:18:45;;;;;;;0.30;0.30;;;;;;;;;;4158596;28;20069;-77
2022/06/26 07:20:47;;;;;;;0.98;0.50;;;;;;;;;;4160224;28;20058;-76
2022/06/26 07:22:49;;;;;;;0.55;0.30;;;;;;;;;;4161898;28;20058;-76
2022/06/26 07:24:56;;;;;;;0.30;0.30;;;;;;;;;;4162190;28;20062;-76
2022/06/26 07:26:58;;;;;;;0.20;0.20;;;;;;;;;;4162583;28;20161;-77
2022/06/26 07:29:00;;;;;;;1.33;0.30;;;;;;;;;;4163926;28;20066;-77
2022/06/26 07:31:03;;;;;;;0.73;0.40;;;;;;;;;;4161261;28;20061;-76
2022/06/26 07:34:12;;;;;;;1.85;0.32;;;;;;;;;;4161502;28;20072;-76
2022/06/26 07:35:29;;;;;;;0.30;0.30;;;;;;;;;;4164410;28;20672;-77
2022/06/26 07:37:31;;;;;;;0.35;0.25;;;;;;;;;;4166318;28;22018;-76
2022/06/26 07:39:33;;;;;;;0.20;0.20;;;;;;;;;;4165676;28;20836;-76
2022/06/26 07:41:36;;;;;;;1.13;0.40;;;;;;;;;;4166264;28;20058;-77
2022/06/26 07:43:38;;;;;;;2.95;0.30;;;;;;;;;;4165085;28;20058;-77
2022/06/26 07:45:40;;;;;;;0.15;0.15;;;;;;;;;;4168937;28;20802;-77
2022/06/26 07:47:42;;;;;;;2.55;0.50;;;;;;;;;;4166923;28;20057;-77
2022/06/26 07:49:44;;;;;;;2.88;0.82;;;;;;;;;;4166738;28;20734;-76
2022/06/26 07:51:46;;;;;;;0.20;0.20;;;;;;;;;;4165301;28;20054;-76
2022/06/26 07:53:51;;;;;;;0.15;0.13;;;;;;;;;;4162824;28;20058;-76
2022/06/26 07:55:54;;;;;;;0.50;0.50;;;;;;;;;;4164190;28;20061;-77
2022/06/26 07:57:56;;;;;;;0.55;0.30;;;;;;;;;;4165508;28;20097;-76
2022/06/26 07:59:58;;;;;;;0.45;0.32;;;;;;;;;;4162788;28;20903;-77
2022/06/26 08:02:01;;;;;;;0.50;0.35;;;;;;;;;;4159609;28;20054;-76
2022/06/26 08:04:03;;;;;;;0.20;0.20;;;;;;;;;;4156894;28;20787;-76
2022/06/26 08:06:05;;;;;;;0.93;0.50;;;;;;;;;;4152078;28;20731;-77
2022/06/26 08:08:07;;;;;;;0.70;0.28;;;;;;;;;;4156348;28;20061;-76
2022/06/26 08:10:10;;;;;;;0.40;0.30;;;;;;;;;;4154168;28;20066;-77
2022/06/26 08:12:12;;;;;;;0.82;0.30;;;;;;;;;;4157506;28;20101;-77
2022/06/26 08:14:14;;;;;;;0.50;0.30;;;;;;;;;;4155431;28;20054;-77
2022/06/26 08:16:16;;;;;;;1.45;0.40;;;;;;;;;;4159527;28;20058;-77
2022/06/26 08:18:18;;;;;;;0.30;0.20;;;;;;;;;;4153822;28;20838;-77
2022/06/26 08:20:21;;;;;;;0.80;0.50;;;;;;;;;;4158740;28;20149;-77
2022/06/26 08:22:23;;;;;;;0.85;0.80;;;;;;;;;;4158499;28;20153;-76
2022/06/26 08:24:25;;;;;;;2.05;0.32;;;;;;;;;;4152039;28;20263;-76
2022/06/26 08:26:27;;;;;;;0.90;0.25;;;;;;;;;;4156723;28;20237;-77
2022/06/26 08:28:29;;;;;;;0.47;0.45;;;;;;;;;;4153161;28;20054;-76
2022/06/26 08:30:31;;;;;;;2.47;0.50;;;;;;;;;;4149882;28;20065;-76
2022/06/26 08:32:33;;;;;;;1.45;0.40;;;;;;;;;;4152137;28;20886;-77
2022/06/26 08:34:35;;;;;;;0.13;0.13;;;;;;;;;;4155497;28;20062;-77
2022/06/26 08:36:38;;;;;;;1.30;0.40;;;;;;;;;;4151729;28;21053;-77
2022/06/26 08:38:40;;;;;;;0.95;0.50;;;;;;;;;;4155387;28;20058;-77
2022/06/26 08:40:43;;;;;;;0.38;0.30;;;;;;;;;;4161182;28;20996;-77
2022/06/26 08:42:49;;;;;;;0.30;0.30;;;;;;;;;;4154106;28;20065;-77
2022/06/26 08:44:51;;;;;;;1.55;0.40;;;;;;;;;;4158608;28;20068;-77
2022/06/26 08:46:54;;;;;;;1.20;0.47;;;;;;;;;;4157688;28;20054;-76
2022/06/26 08:49:02;;;;;;;0.50;0.30;;;;;;;;;;4157321;28;21254;-77
2022/06/26 08:51:04;;;;;;;0.43;0.35;;;;;;;;;;4171988;28;20064;-76
2022/06/26 08:53:07;;;;;;;0.25;0.20;;;;;;;;;;4154407;28;20097;-77
2022/06/26 08:55:09;;;;;;;0.70;0.30;;;;;;;;;;4156154;28;20197;-77
2022/06/26 08:57:15;;;;;;;0.75;0.20;;;;;;;;;;4156367;28;20054;-77
2022/06/26 08:59:18;;;;;;;0.85;0.30;;;;;;;;;;4158142;28;20784;-77
2022/06/26 09:01:20;;;;;;;0.73;0.30;;;;;;;;;;4155056;28;20070;-77
2022/06/26 09:03:22;;;;;;;0.10;0.10;;;;;;;;;;4154400;28;20058;-77
2022/06/26 09:05:24;;;;;;;0.17;0.17;;;;;;;;;;4155431;28;20153;-77
2022/06/26 09:07:26;;;;;;;1.38;0.30;;;;;;;;;;4156120;28;20069;-76
2022/06/26 09:09:29;;;;;;;2.67;0.30;;;;;;;;;;4163720;28;20058;-77
2022/06/26 09:11:38;;;;;;;1.20;0.93;;;;;;;;;;4162482;28;20069;-78
2022/06/26 09:13:41;;;;;;;0.45;0.30;;;;;;;;;;4167367;28;20860;-79
2022/06/26 09:15:44;;;;;;;0.45;0.40;;;;;;;;;;4165721;28;20054;-79
2022/06/26 09:17:56;;;;;;;0.50;0.35;;;;;;;;;;4165860;28;20785;-78
2022/06/26 09:19:58;;;;;;;0.88;0.20;;;;;;;;;;4164544;28;20080;-77
2022/06/26 09:22:18;;;;;;;0.30;0.30;;;;;;;;;;4161125;28;20073;-77
2022/06/26 09:27:25;;;;;;;3.15;0.52;;;;;;;;;;4162975;28;20061;-78
2022/06/26 09:29:27;;;;;;;2.90;0.40;;;;;;;;;;4163372;28;20058;-78
2022/06/26 09:31:29;;;;;;;0.75;0.40;;;;;;;;;;4161642;28;20197;-77
2022/06/26 09:33:33;;;;;;;2.60;0.43;;;;;;;;;;4166357;28;20101;-78
2022/06/26 09:35:35;;;;;;;0.70;0.40;;;;;;;;;;4166058;28;20062;-79
2022/06/26 09:37:38;;;;;;;2.38;0.47;;;;;;;;;;4165703;28;20052;-78
2022/06/26 09:40:01;;;;;;;4.30;0.57;;;;;;;;;;4161859;28;20849;-78
2022/06/26 09:42:04;;;;;;;0.85;0.50;;;;;;;;;;4162018;28;20616;-77
2022/06/26 09:44:06;;;;;;;4.13;0.80;;;;;;;;;;4167001;28;20152;-77
2022/06/26 09:46:15;;;;;;;2.53;1.08;;;;;;;;;;4166310;28;20049;-78
2022/06/26 09:48:17;;;;;;;2.90;0.75;;;;;;;;;;4163241;28;20066;-78
2022/06/26 09:50:21;;;;;;;0.70;0.50;;;;;;;;;;4165786;28;20971;-76
2022/06/26 09:52:24;;;;;;;3.63;0.50;;;;;;;;;;4164593;28;20763;-78
2022/06/26 09:54:27;;;;;;;1.98;0.47;;;;;;;;;;4164910;28;20069;-78
2022/06/26 09:56:29;;;;;;;2.78;0.50;;;;;;;;;;4165331;28;20073;-77
2022/06/26 09:58:31;;;;;;;4.70;0.60;;;;;;;;;;4167086;28;20065;-78
2022/06/26 10:00:35;;;;;;;0.32;0.30;;;;;;;;;;4168055;28;20065;-78
2022/06/26 10:07:26;;;;;;;1.08;0.60;;;;;;;;;;4166972;28;20140;-78
2022/06/26 10:09:29;;;;;;;10.55;0.95;;;;;;;;;;4161090;28;20053;-79
2022/06/26 10:11:32;;;;;;;3.35;0.80;;;;;;;;;;4161469;28;20042;-77
2022/06/26 10:13:36;;;;;;;2.35;0.63;;;;;;;;;;4158276;28;20046;-78
2022/06/26 10:15:57;;;;;;;7.05;0.80;;;;;;;;;;4160639;28;20068;-78
2022/06/26 10:17:59;;;;;;;3.45;0.80;;;;;;;;;;4167766;28;20133;-79
2022/06/26 10:20:04;;;;;;;2.40;0.50;;;;;;;;;;4161113;28;20054;-79
2022/06/26 10:22:07;;;;;;;5.45;0.70;;;;;;;;;;4155982;28;20844;-71
2022/06/26 10:24:09;;;;;;;6.13;0.88;;;;;;;;;;4158194;28;20132;-79
2022/06/26 10:26:18;;;;;;;8.85;1.77;;;;;;;;;;4161319;28;21219;-74
2022/06/26 10:28:20;;;;;;;8.98;1.42;;;;;;;;;;4157387;28;20060;-78
2022/06/26 10:30:24;;;;;;;8.13;1.02;;;;;;;;;;4152767;28;20888;-73
2022/06/26 10:32:26;;;;;;;13.98;1.75;;;;;;;;;;4164799;28;20053;-79
2022/06/26 10:34:29;;;;;;;5.35;1.15;;;;;;;;;;4159627;28;20066;-80
2022/06/26 10:36:31;;;;;;;7.90;0.98;;;;;;;;;;4163684;28;20123;-77
2022/06/26 10:38:33;;;;;;;6.65;1.08;;;;;;;;;;4152752;28;20066;-78
2022/06/26 10:42:56;;;;;;;3.97;0.75;;;;;;;;;;4156072;28;20132;-76
2022/06/26 10:45:05;;;;;;;5.80;0.85;;;;;;;;;;4153517;28;20132;-74
2022/06/26 10:47:14;;;;;;;4.70;1.52;;;;;;;;;;4152218;28;20069;-73
2022/06/26 10:49:16;;;;;;;8.40;1.52;;;;;;;;;;4151893;28;20058;-74
2022/06/26 10:51:24;;;;;;;2.05;1.02;;;;;;;;;;4155356;28;20842;-76
2022/06/26 10:53:27;;;;;;;2.78;0.90;;;;;;;;;;4151683;28;20062;-74
2022/06/26 10:55:29;;;;;;;6.95;1.10;;;;;;;;;;4153064;28;20062;-79
2022/06/26 10:57:35;;;;;;;7.15;0.88;;;;;;;;;;4156088;28;20062;-76
2022/06/26 10:59:42;;;;;;;7.55;1.50;;;;;;;;;;4156703;28;20042;-80
2022/06/26 11:01:45;;;;;;;6.32;1.25;;;;;;;;;;4165603;28;20758;-76
2022/06/26 11:03:47;;;;;;;5.45;0.95;;;;;;;;;;4155778;28;20085;-73
2022/06/26 11:06:00;;;;;;;1.77;1.00;;;;;;;;;;4161752;28;20062;-77
2022/06/26 11:08:02;;;;;;;2.58;0.95;;;;;;;;;;4159640;28;20165;-75
2022/06/26 11:10:04;;;;;;;4.70;1.95;;;;;;;;;;4154647;28;20058;-75
2022/06/26 11:12:06;;;;;;;6.70;2.60;;;;;;;;;;4154940;28;20066;-76
2022/06/26 11:14:09;;;;;;;3.75;2.17;;;;;;;;;;4159141;28;20058;-74
2022/06/26 11:16:11;;;;;;;8.35;2.20;;;;;;;;;;4158352;28;20058;-74
2022/06/26 11:18:13;;;;;;;4.35;1.90;;;;;;;;;;4159098;28;20058;-75
2022/06/26 11:22:38;;;;;;;7.85;2.22;;;;;;;;;;4156342;28;20069;-74
2022/06/26 11:24:51;;;;;;;6.05;1.88;;;;;;;;;;4157626;28;20058;-74
2022/06/26 11:27:00;;;;;;;5.90;1.88;;;;;;;;;;4157260;28;20054;-74
2022/06/26 11:29:03;;;;;;;4.85;1.90;;;;;;;;;;4156080;28;20058;-74
2022/06/26 11:31:07;;;;;;;4.22;1.65;;;;;;;;;;4155388;28;20861;-74
2022/06/26 11:33:09;;;;;;;3.15;1.40;;;;;;;;;;4153312;28;20359;-74
2022/06/26 11:35:11;;;;;;;5.82;1.77;;;;;;;;;;4159059;28;20054;-74
2022/06/26 11:37:13;;;;;;;2.50;1.55;;;;;;;;;;4157257;28;20046;-73
2022/06/26 11:39:16;;;;;;;4.30;1.25;;;;;;;;;;4154093;28;20168;-73
2022/06/26 11:41:19;;;;;;;7.15;1.90;;;;;;;;;;4161058;28;20057;-73
2022/06/26 11:43:21;;;;;;;2.78;1.52;;;;;;;;;;4160131;28;20855;-73
2022/06/26 11:45:24;;;;;;;3.80;1.33;;;;;;;;;;4158807;28;20054;-74
2022/06/26 11:47:27;;;;;;;6.03;2.08;;;;;;;;;;4160642;28;20062;-74
2022/06/26 11:49:33;;;;;;;5.68;1.40;;;;;;;;;;4159203;28;20072;-73
2022/06/26 11:51:35;;;;;;;2.75;1.13;;;;;;;;;;4157412;28;20101;-73
2022/06/26 11:53:38;;;;;;;3.85;1.35;;;;;;;;;;4156396;28;20054;-73
2022/06/26 11:55:47;;;;;;;6.53;1.48;;;;;;;;;;4155663;28;20058;-74
2022/06/26 11:57:49;;;;;;;2.92;0.80;;;;;;;;;;4159880;28;20140;-73
2022/06/26 11:59:52;;;;;;;5.50;0.90;;;;;;;;;;4158721;28;20797;-75
2022/06/26 12:01:54;;;;;;;7.65;1.45;;;;;;;;;;4157122;28;20866;-74
2022/06/26 12:03:56;;;;;;;1.88;0.60;;;;;;;;;;4158148;28;20234;-72
2022/06/26 12:05:59;;;;;;;1.88;1.23;;;;;;;;;;4159884;28;20849;-74
2022/06/26 12:08:01;;;;;;;3.53;1.08;;;;;;;;;;4157816;28;20058;-74
2022/06/26 12:10:03;;;;;;;3.13;1.20;;;;;;;;;;4153309;28;20827;-74
2022/06/26 12:12:12;;;;;;;2.45;0.80;;;;;;;;;;4159290;28;20070;-75
2022/06/26 12:14:16;;;;;;;3.65;1.35;;;;;;;;;;4160297;28;20064;-74
2022/06/26 12:16:18;;;;;;;1.50;0.85;;;;;;;;;;4161346;28;20063;-75
2022/06/26 12:18:21;;;;;;;4.40;1.20;;;;;;;;;;4152966;28;20185;-75
2022/06/26 12:20:23;;;;;;;3.05;1.40;;;;;;;;;;4160003;28;20057;-75
2022/06/26 12:22:26;;;;;;;2.33;1.00;;;;;;;;;;4162909;28;20069;-75
2022/06/26 12:24:28;;;;;;;3.13;1.05;;;;;;;;;;4152039;28;20049;-74
2022/06/26 12:26:37;;;;;;;3.53;0.93;;;;;;;;;;4159767;28;20064;-76
2022/06/26 12:29:00;;;;;;;4.88;0.70;;;;;;;;;;4159467;28;20053;-75
2022/06/26 12:31:02;;;;;;;4.50;0.98;;;;;;;;;;4162054;28;21248;-74
2022/06/26 12:33:05;;;;;;;2.17;1.10;;;;;;;;;;4162846;28;20169;-74
2022/06/26 12:35:07;;;;;;;1.35;0.80;;;;;;;;;;4158347;28;20059;-74
2022/06/26 12:37:09;;;;;;;3.55;1.10;;;;;;;;;;4157623;28;20144;-74